CZUM/ZUM METAR and TAF weather

Enter ICAO airport designator
Station Type Date Time Source
CZUM METAR 2022/12/10 01:00 UTC NOAA

CZUM 100100Z AUTO 28006KT 9SM CLR M21/M24 A3048 RMK SLP371


Station Type Date Time Source
CZUM Decoded METAR 2022/12/10 01:00 UTC NOAA

Churchill Falls, Nfld., Canada (CZUM) 53-33N 064-06W 440M
Dec 09, 2022 - 08:00 PM EST / 2022.12.10 0100 UTC
Wind: from the W (280 degrees) at 7 MPH (6 KT):0
Visibility: 9 mile(s):0
Sky conditions: clear
Temperature: -5 F (-21 C)
Windchill: -18 F (-28 C):2
Dew Point: -11 F (-24 C)
Relative Humidity: 76%
Pressure (altimeter): 30.48 in. Hg (1032 hPa)
ob: CZUM 100100Z AUTO 28006KT 9SM CLR M21/M24 A3048 RMK SLP371
cycle: 1

Station Type Date Time Source
CZUM TAF 2022/12/10 02:42 UTC NOAA

TAF TAF CZUM 100140Z 1002/1014 30008KT P6SM FEW020
TEMPO 1008/1014 BKN020
BECMG 1008/1010 32010G20KT
RMK FCST BASED ON AUTO OBS. NXT FCST BY 100800Z

Example: see airport list